Time;durP1;ratioP1;P1;durP2;ratioP2;P2;SDS_P1;SDS_P2;PMS_P1;PMS_P2;Temp;Humidity;BMP_temperature;BMP_pressure;BME280_temperature;BME280_humidity;BME280_pressure;Samples;Min_cycle;Max_cycle;Signal;HPM_P1;HPM_P2
2023/05/02 00:00:32;;;;;;;16.50;14.80;;;14.40;99.90;;;;;;5051732;28;20228;-75
2023/05/02 00:02:59;;;;;;;18.93;16.40;;;14.40;99.90;;;;;;5052101;28;20577;-75
2023/05/02 00:05:25;;;;;;;17.90;16.23;;;14.40;99.90;;;;;;5050529;28;20169;-75
2023/05/02 00:07:51;;;;;;;17.58;15.80;;;14.30;99.90;;;;;;5050417;28;20173;-75
2023/05/02 00:10:17;;;;;;;21.00;19.03;;;14.30;99.90;;;;;;5051903;28;20183;-75
2023/05/02 00:12:43;;;;;;;20.40;18.30;;;14.30;99.90;;;;;;5050054;28;20193;-75
2023/05/02 00:15:09;;;;;;;21.07;18.33;;;14.20;99.90;;;;;;5051989;28;20169;-75
2023/05/02 00:17:35;;;;;;;20.07;17.63;;;14.10;99.90;;;;;;5033397;28;21192;-75
2023/05/02 00:20:03;;;;;;;22.25;19.85;;;14.10;99.90;;;;;;5051758;28;20197;-75
2023/05/02 00:22:29;;;;;;;20.65;18.48;;;14.00;99.90;;;;;;5032797;28;20259;-75
2023/05/02 00:24:56;;;;;;;21.63;19.38;;;13.90;99.90;;;;;;5031964;28;20192;-75
2023/05/02 00:27:22;;;;;;;20.95;18.23;;;13.90;99.90;;;;;;5031168;28;20170;-74
2023/05/02 00:29:48;;;;;;;20.00;18.00;;;13.80;99.90;;;;;;5030284;28;20246;-75
2023/05/02 00:32:14;;;;;;;22.00;17.33;;;13.70;99.90;;;;;;5029903;28;20653;-75
2023/05/02 00:34:40;;;;;;;20.43;18.20;;;13.60;99.90;;;;;;5030195;28;20211;-75
2023/05/02 00:37:06;;;;;;;25.30;19.27;;;13.60;99.90;;;;;;5030198;28;20517;-75
2023/05/02 00:39:34;;;;;;;22.15;19.65;;;13.60;99.90;;;;;;5029879;28;20597;-75
2023/05/02 00:42:00;;;;;;;22.70;20.25;;;13.50;99.90;;;;;;5029898;28;20190;-75
2023/05/02 00:44:27;;;;;;;22.20;19.90;;;13.50;99.90;;;;;;5029896;28;20630;-75
2023/05/02 00:46:53;;;;;;;21.83;17.48;;;13.40;99.90;;;;;;5029893;28;20269;-75
2023/05/02 00:49:19;;;;;;;22.25;18.70;;;13.40;99.90;;;;;;5029594;28;20257;-75
2023/05/02 00:51:45;;;;;;;19.27;17.00;;;13.30;99.90;;;;;;5035533;28;20779;-75
2023/05/02 00:54:14;;;;;;;22.70;18.93;;;13.30;99.90;;;;;;5041348;28;20232;-75
2023/05/02 00:56:41;;;;;;;22.63;18.85;;;13.20;99.90;;;;;;5049723;28;20588;-74
2023/05/02 00:59:09;;;;;;;21.25;17.60;;;13.10;99.90;;;;;;5050101;28;20226;-74
2023/05/02 01:01:41;;;;;;;23.60;21.10;;;13.20;99.90;;;;;;5048260;28;20200;-74
2023/05/02 01:04:28;;;;;;;27.60;20.90;;;13.20;99.90;;;;;;5029026;28;20217;-74
2023/05/02 01:07:06;;;;;;;21.98;19.30;;;13.10;99.90;;;;;;5030813;28;20563;-73
2023/05/02 01:10:01;;;;;;;27.08;19.85;;;13.20;99.90;;;;;;5029730;28;20296;-73
2023/05/02 01:12:44;;;;;;;21.92;17.73;;;13.20;99.90;;;;;;5022638;28;20197;-74
2023/05/02 01:15:16;;;;;;;20.55;18.30;;;13.20;99.90;;;;;;5022377;28;20908;-75
2023/05/02 01:17:44;;;;;;;23.40;19.65;;;13.20;99.90;;;;;;5002261;28;20543;-75
2023/05/02 01:20:18;;;;;;;25.05;21.75;;;13.30;99.90;;;;;;5029907;28;20198;-74
2023/05/02 01:22:45;;;;;;;21.02;18.70;;;13.20;99.90;;;;;;5028792;28;20291;-74
2023/05/02 01:25:51;;;;;;;24.27;18.98;;;13.30;99.90;;;;;;5013383;28;20188;-74
2023/05/02 01:28:53;;;;;;;22.38;19.50;;;13.20;99.90;;;;;;5011749;28;20268;-74
2023/05/02 01:31:20;;;;;;;23.65;20.75;;;13.30;99.90;;;;;;5030523;28;20538;-74
2023/05/02 01:33:48;;;;;;;21.90;19.20;;;13.20;99.90;;;;;;5012751;28;20193;-74
2023/05/02 01:36:16;;;;;;;25.70;22.13;;;13.20;99.90;;;;;;5029510;28;20177;-75
2023/05/02 01:38:43;;;;;;;24.92;21.85;;;13.20;99.90;;;;;;5029156;28;20230;-74
2023/05/02 01:41:11;;;;;;;24.63;20.77;;;13.20;99.90;;;;;;5029508;28;20228;-74
2023/05/02 01:43:38;;;;;;;24.30;21.00;;;13.20;99.90;;;;;;5029196;28;20190;-74
2023/05/02 01:46:06;;;;;;;29.52;23.00;;;13.20;99.90;;;;;;5012352;28;20173;-74
2023/05/02 01:48:33;;;;;;;27.90;22.80;;;13.20;99.90;;;;;;5030013;28;20197;-73
2023/05/02 01:50:58;;;;;;;28.17;23.65;;;13.20;99.90;;;;;;5030902;28;20195;-74
2023/05/02 01:53:27;;;;;;;27.97;22.80;;;13.20;99.90;;;;;;5014862;28;20194;-73
2023/05/02 01:55:54;;;;;;;32.35;24.83;;;13.20;99.90;;;;;;5032969;28;20591;-74
2023/05/02 01:58:21;;;;;;;28.95;22.02;;;13.20;99.90;;;;;;5017418;28;20236;-73
2023/05/02 02:00:53;;;;;;;25.95;21.17;;;13.20;99.90;;;;;;5034368;28;20217;-73
2023/05/02 02:03:20;;;;;;;30.08;24.35;;;13.20;99.90;;;;;;5016819;28;20194;-74
2023/05/02 02:05:48;;;;;;;30.05;24.33;;;13.20;99.90;;;;;;5016227;28;20180;-74
2023/05/02 02:08:14;;;;;;;29.83;22.80;;;13.20;99.90;;;;;;5016493;28;20174;-75
2023/05/02 02:10:43;;;;;;;29.57;23.57;;;13.20;99.90;;;;;;5032878;28;20184;-75
2023/05/02 02:13:17;;;;;;;30.90;24.40;;;13.20;99.90;;;;;;5032861;28;20557;-74
2023/05/02 02:15:49;;;;;;;32.80;26.15;;;13.20;99.90;;;;;;5032522;28;20189;-74
2023/05/02 02:18:25;;;;;;;29.92;22.10;;;13.20;99.90;;;;;;5016500;28;20254;-74
2023/05/02 02:20:52;;;;;;;30.65;24.40;;;13.20;99.90;;;;;;5030925;28;20237;-75
2023/05/02 02:23:23;;;;;;;26.73;22.38;;;13.20;99.90;;;;;;5031194;28;20220;-75
2023/05/02 02:25:51;;;;;;;30.33;25.60;;;13.20;99.90;;;;;;5032597;28;20184;-74
2023/05/02 02:28:16;;;;;;;31.50;24.20;;;13.20;99.90;;;;;;5032306;28;20264;-74
2023/05/02 02:30:42;;;;;;;30.07;23.53;;;13.30;99.90;;;;;;5032910;28;20260;-74
2023/05/02 02:33:08;;;;;;;29.83;24.37;;;13.30;99.90;;;;;;5032214;28;20681;-74
2023/05/02 02:35:39;;;;;;;27.47;21.47;;;13.30;99.90;;;;;;5032489;28;20660;-74
2023/05/02 02:38:04;;;;;;;32.70;25.52;;;13.30;99.90;;;;;;5015768;28;20269;-75
2023/05/02 02:40:41;;;;;;;33.10;26.33;;;13.30;99.90;;;;;;5016114;28;20303;-75
2023/05/02 02:43:47;;;;;;;28.42;21.48;;;13.30;99.90;;;;;;5032217;28;20225;-74
2023/05/02 02:46:27;;;;;;;26.02;20.38;;;13.30;99.90;;;;;;5015337;28;20535;-74
2023/05/02 02:49:09;;;;;;;27.00;20.38;;;13.30;99.90;;;;;;5031914;28;20173;-74
2023/05/02 02:52:04;;;;;;;29.10;22.15;;;13.30;99.90;;;;;;5015712;28;20269;-74
2023/05/02 02:54:43;;;;;;;27.75;20.50;;;13.30;99.90;;;;;;5032096;28;20182;-74
2023/05/02 02:57:34;;;;;;;26.38;19.90;;;13.30;99.90;;;;;;5032212;28;20235;-74
2023/05/02 03:00:17;;;;;;;27.58;21.23;;;13.30;99.90;;;;;;5033148;28;20197;-74
2023/05/02 03:02:46;;;;;;;26.73;20.10;;;13.30;99.90;;;;;;5035856;28;20270;-75
2023/05/02 03:05:13;;;;;;;24.52;18.70;;;13.30;99.90;;;;;;5023303;28;20177;-74
2023/05/02 03:07:39;;;;;;;25.08;18.35;;;13.30;99.90;;;;;;5034951;28;20177;-75
2023/05/02 03:10:06;;;;;;;27.42;20.10;;;13.30;99.90;;;;;;5052696;28;20183;-74
2023/05/02 03:12:33;;;;;;;26.45;18.83;;;13.30;99.90;;;;;;5035164;28;20254;-75
2023/05/02 03:15:25;;;;;;;30.17;20.85;;;13.40;99.90;;;;;;5051365;28;20652;-74
2023/05/02 03:17:51;;;;;;;22.58;17.58;;;13.40;99.90;;;;;;5025791;28;20272;-75
2023/05/02 03:20:17;;;;;;;26.23;18.00;;;13.40;99.90;;;;;;5031268;28;20284;-74
2023/05/02 03:22:43;;;;;;;26.13;20.00;;;13.40;99.90;;;;;;5031137;28;20618;-75
2023/05/02 03:25:08;;;;;;;28.77;19.33;;;13.50;99.90;;;;;;5032043;28;20580;-75
2023/05/02 03:27:36;;;;;;;23.40;18.95;;;13.50;99.90;;;;;;5030740;28;20174;-75
2023/05/02 03:30:05;;;;;;;26.05;19.80;;;13.50;99.90;;;;;;5015178;28;20174;-74
2023/05/02 03:32:31;;;;;;;26.63;20.17;;;13.50;99.90;;;;;;5030967;28;20224;-74
2023/05/02 03:34:58;;;;;;;26.20;18.87;;;13.50;99.90;;;;;;5032891;28;20169;-74
2023/05/02 03:37:28;;;;;;;26.63;19.27;;;13.50;99.90;;;;;;5030922;28;20169;-74
2023/05/02 03:39:56;;;;;;;27.48;19.13;;;13.50;99.90;;;;;;5015402;28;20197;-74
2023/05/02 03:42:22;;;;;;;21.77;17.00;;;13.60;99.90;;;;;;5014387;28;20194;-75
2023/05/02 03:44:51;;;;;;;27.03;19.30;;;13.60;99.90;;;;;;5031317;28;20257;-74
2023/05/02 03:47:17;;;;;;;23.45;17.80;;;13.60;99.90;;;;;;5034251;28;20186;-75
2023/05/02 03:49:43;;;;;;;21.00;17.07;;;13.60;99.90;;;;;;5014868;28;20180;-74
2023/05/02 03:52:10;;;;;;;26.33;19.48;;;13.60;99.90;;;;;;5014515;28;20609;-74
2023/05/02 03:54:36;;;;;;;23.58;18.70;;;13.60;99.90;;;;;;5014369;28;20200;-74
2023/05/02 03:57:03;;;;;;;23.75;19.75;;;13.60;99.90;;;;;;5030911;28;20177;-74
2023/05/02 03:59:34;;;;;;;21.25;17.50;;;13.60;99.90;;;;;;5014168;28;20166;-74
2023/05/02 04:02:03;;;;;;;22.02;16.77;;;13.60;99.90;;;;;;5014387;28;20219;-75
2023/05/02 04:04:39;;;;;;;23.42;17.80;;;13.60;99.90;;;;;;5030404;28;20178;-74
2023/05/02 04:07:08;;;;;;;20.83;17.25;;;13.70;99.90;;;;;;5030452;28;20518;-74
2023/05/02 04:09:34;;;;;;;26.92;18.77;;;13.70;99.90;;;;;;5030130;28;20173;-75
2023/05/02 04:12:09;;;;;;;22.63;15.98;;;13.70;99.90;;;;;;5014066;28;20239;-74
2023/05/02 04:14:41;;;;;;;23.40;17.88;;;13.70;99.90;;;;;;5013435;28;20182;-75
2023/05/02 04:17:08;;;;;;;28.25;18.95;;;13.70;99.90;;;;;;5031327;28;20536;-76
2023/05/02 04:19:39;;;;;;;27.45;19.83;;;13.70;99.90;;;;;;5030142;28;20597;-75
2023/05/02 04:22:05;;;;;;;21.92;17.98;;;13.70;99.90;;;;;;5013258;28;20197;-75
2023/05/02 04:24:35;;;;;;;26.02;18.95;;;13.70;99.90;;;;;;5030164;28;20208;-75
2023/05/02 04:27:01;;;;;;;24.33;19.35;;;13.70;99.90;;;;;;5029615;28;20647;-75
2023/05/02 04:29:27;;;;;;;25.27;19.05;;;13.70;99.90;;;;;;5029322;28;20205;-75
2023/05/02 04:31:53;;;;;;;22.73;16.30;;;13.70;99.90;;;;;;5028392;28;20681;-75
2023/05/02 04:34:21;;;;;;;25.40;17.67;;;13.70;99.90;;;;;;5030755;28;20974;-76
2023/05/02 04:36:47;;;;;;;24.23;17.17;;;13.70;99.90;;;;;;5029549;28;20181;-75
2023/05/02 04:39:18;;;;;;;26.42;18.83;;;13.70;99.90;;;;;;5013947;28;20196;-75
2023/05/02 04:41:54;;;;;;;24.25;17.35;;;13.70;99.90;;;;;;5012661;28;20193;-76
2023/05/02 04:44:21;;;;;;;22.52;17.52;;;13.70;99.90;;;;;;5031025;28;20228;-76
2023/05/02 04:46:48;;;;;;;25.10;18.65;;;13.70;99.90;;;;;;5013885;28;20176;-76
2023/05/02 04:49:13;;;;;;;23.00;16.10;;;13.70;99.90;;;;;;5014009;28;20533;-75
2023/05/02 04:51:40;;;;;;;20.35;17.40;;;13.60;99.90;;;;;;5030360;28;20584;-75
2023/05/02 04:54:07;;;;;;;22.13;17.08;;;13.60;99.90;;;;;;5015845;28;20244;-75
2023/05/02 04:56:33;;;;;;;21.08;16.08;;;13.60;99.90;;;;;;5034809;28;20173;-75
2023/05/02 04:58:58;;;;;;;22.43;17.10;;;13.60;99.90;;;;;;5031894;28;20645;-75
2023/05/02 05:01:27;;;;;;;22.92;15.43;;;13.60;99.90;;;;;;5030513;28;20216;-75
2023/05/02 05:03:55;;;;;;;20.35;15.77;;;13.70;99.90;;;;;;5029448;28;20169;-75
2023/05/02 05:06:21;;;;;;;24.33;16.58;;;13.70;99.90;;;;;;5031509;28;20170;-76
2023/05/02 05:08:47;;;;;;;20.95;15.18;;;13.70;99.90;;;;;;5013479;28;20224;-75
2023/05/02 05:11:15;;;;;;;19.15;14.40;;;13.80;99.90;;;;;;5031518;28;20544;-73
2023/05/02 05:13:41;;;;;;;20.20;15.50;;;13.80;99.90;;;;;;5016301;28;20201;-73
2023/05/02 05:16:07;;;;;;;19.83;15.98;;;13.80;99.90;;;;;;5032978;28;20185;-73
2023/05/02 05:18:39;;;;;;;19.00;13.77;;;13.80;99.90;;;;;;5015058;28;20653;-74
2023/05/02 05:21:08;;;;;;;26.15;16.48;;;13.90;99.90;;;;;;5009299;28;20206;-74
2023/05/02 05:23:35;;;;;;;22.63;15.65;;;13.90;99.90;;;;;;5012078;28;20716;-75
2023/05/02 05:26:11;;;;;;;20.98;14.88;;;13.90;99.90;;;;;;5012009;28;20179;-74
2023/05/02 05:28:39;;;;;;;22.77;15.00;;;14.00;99.90;;;;;;4994552;28;20178;-74
2023/05/02 05:31:11;;;;;;;19.52;13.70;;;14.00;99.90;;;;;;4994819;28;20592;-75
2023/05/02 05:33:38;;;;;;;22.42;14.68;;;14.00;99.90;;;;;;4994788;28;20221;-75
2023/05/02 05:36:08;;;;;;;18.98;15.63;;;14.00;99.90;;;;;;4994001;28;20185;-75
2023/05/02 05:38:34;;;;;;;18.35;13.98;;;14.00;99.90;;;;;;5013486;28;20228;-75
2023/05/02 05:41:00;;;;;;;21.20;15.27;;;14.10;99.90;;;;;;5031391;28;20193;-75
2023/05/02 05:43:27;;;;;;;17.88;14.65;;;14.10;99.90;;;;;;5014591;28;20189;-76
2023/05/02 05:45:54;;;;;;;18.02;13.48;;;14.10;99.90;;;;;;5030642;28;20173;-75
2023/05/02 05:48:20;;;;;;;18.83;13.60;;;14.00;99.90;;;;;;5029014;28;20644;-75
2023/05/02 05:50:47;;;;;;;20.30;13.43;;;14.10;99.90;;;;;;5012762;28;20177;-75
2023/05/02 05:53:13;;;;;;;19.90;13.48;;;14.10;99.90;;;;;;5028446;28;20982;-76
2023/05/02 05:55:41;;;;;;;20.27;15.43;;;14.10;99.90;;;;;;5012813;28;20266;-75
2023/05/02 05:58:08;;;;;;;17.33;14.18;;;14.10;99.90;;;;;;5028719;28;20182;-75
2023/05/02 06:00:37;;;;;;;17.45;12.45;;;14.10;99.90;;;;;;5012801;28;20204;-75
2023/05/02 06:03:03;;;;;;;16.17;13.40;;;14.10;99.90;;;;;;5029415;28;20205;-75
2023/05/02 06:05:32;;;;;;;17.45;13.20;;;14.10;99.90;;;;;;5029106;28;20176;-75
2023/05/02 06:07:58;;;;;;;16.00;11.60;;;14.20;99.90;;;;;;5012702;28;20193;-75
2023/05/02 06:10:25;;;;;;;18.80;14.57;;;14.10;99.90;;;;;;5028639;28;20560;-76
2023/05/02 06:12:51;;;;;;;15.55;11.85;;;14.10;99.90;;;;;;5012729;28;20201;-75
2023/05/02 06:15:21;;;;;;;18.13;13.23;;;14.10;99.90;;;;;;5028716;28;20530;-75
2023/05/02 06:17:49;;;;;;;16.13;12.23;;;14.10;99.90;;;;;;5025781;28;20178;-75
2023/05/02 06:20:15;;;;;;;15.13;11.93;;;14.10;99.90;;;;;;5009333;28;20296;-75
2023/05/02 06:22:41;;;;;;;17.15;13.43;;;14.00;99.90;;;;;;4999480;28;20285;-75
2023/05/02 06:25:07;;;;;;;19.87;13.73;;;14.00;99.90;;;;;;5025990;28;20607;-75
2023/05/02 06:27:33;;;;;;;17.88;14.05;;;14.00;99.90;;;;;;5009951;28;20293;-75
2023/05/02 06:29:59;;;;;;;17.67;12.98;;;14.00;99.90;;;;;;5010796;28;20182;-75
2023/05/02 06:32:28;;;;;;;18.40;13.87;;;14.00;99.90;;;;;;5008691;28;20205;-75
2023/05/02 06:34:54;;;;;;;17.75;13.40;;;13.90;99.90;;;;;;5009940;28;20189;-74
2023/05/02 06:37:20;;;;;;;18.33;12.97;;;13.90;99.90;;;;;;5009983;28;20178;-74
2023/05/02 06:39:45;;;;;;;20.57;13.37;;;13.90;99.90;;;;;;5018933;28;20181;-74
2023/05/02 06:42:11;;;;;;;17.83;13.80;;;13.90;99.90;;;;;;5032609;28;20217;-74
2023/05/02 06:44:37;;;;;;;17.20;12.53;;;13.90;99.90;;;;;;5032129;28;20580;-74
2023/05/02 06:47:04;;;;;;;18.40;13.30;;;13.90;99.90;;;;;;5033242;28;20588;-74
2023/05/02 06:49:33;;;;;;;17.65;12.68;;;13.90;99.90;;;;;;5013662;28;20206;-74
2023/05/02 06:51:58;;;;;;;17.57;13.53;;;13.90;99.90;;;;;;5031047;28;20194;-74
2023/05/02 06:54:25;;;;;;;19.13;14.70;;;13.90;99.90;;;;;;5046005;28;20177;-74
2023/05/02 06:56:50;;;;;;;20.35;14.05;;;13.90;99.90;;;;;;5048389;28;20184;-74
2023/05/02 06:59:16;;;;;;;20.00;13.73;;;13.90;99.90;;;;;;5031499;28;20175;-74
2023/05/02 07:01:45;;;;;;;18.07;12.33;;;13.90;99.90;;;;;;5032736;28;20208;-74
2023/05/02 07:04:11;;;;;;;20.60;13.90;;;14.00;99.90;;;;;;5041984;28;20169;-74
2023/05/02 07:06:37;;;;;;;16.40;13.20;;;14.00;99.90;;;;;;5049522;28;20263;-74
2023/05/02 07:09:02;;;;;;;18.07;11.70;;;14.10;99.90;;;;;;5043667;28;20181;-74
2023/05/02 07:11:28;;;;;;;15.80;12.80;;;14.20;99.90;;;;;;5039514;28;20738;-74
2023/05/02 07:13:54;;;;;;;15.60;12.70;;;14.10;99.90;;;;;;5044278;28;20196;-74
2023/05/02 07:16:20;;;;;;;13.63;10.00;;;14.10;99.90;;;;;;5042789;28;20584;-74
2023/05/02 07:18:45;;;;;;;13.80;10.80;;;14.10;99.90;;;;;;5034491;28;20192;-74
2023/05/02 07:21:12;;;;;;;18.57;10.70;;;14.10;99.90;;;;;;5025546;28;20284;-74
2023/05/02 07:23:37;;;;;;;11.68;8.98;;;14.20;99.90;;;;;;5041957;28;20263;-74
2023/05/02 07:26:06;;;;;;;11.50;9.20;;;14.20;99.90;;;;;;5035968;28;20182;-74
2023/05/02 07:28:32;;;;;;;10.30;8.45;;;14.10;99.90;;;;;;5040347;28;20169;-73
2023/05/02 07:30:58;;;;;;;12.32;11.02;;;14.20;99.90;;;;;;5040715;28;20264;-74
2023/05/02 07:33:24;;;;;;;13.23;10.10;;;14.20;99.90;;;;;;5018104;28;20291;-74
2023/05/02 07:35:50;;;;;;;14.83;10.70;;;14.20;99.90;;;;;;5040768;28;20647;-72
2023/05/02 07:38:16;;;;;;;13.60;10.73;;;14.30;99.90;;;;;;5043633;28;20173;-71
2023/05/02 07:40:42;;;;;;;11.23;9.73;;;14.30;99.90;;;;;;5046351;28;20677;-74
2023/05/02 07:43:08;;;;;;;13.70;11.23;;;14.30;99.90;;;;;;5042962;28;20665;-74
2023/05/02 07:45:34;;;;;;;18.00;13.07;;;14.30;99.90;;;;;;5035887;28;20587;-74
2023/05/02 07:48:00;;;;;;;20.17;15.30;;;14.30;99.90;;;;;;5044351;28;20260;-74
2023/05/02 07:50:27;;;;;;;19.73;16.47;;;14.30;99.90;;;;;;5051424;28;20701;-74
2023/05/02 07:52:54;;;;;;;24.20;19.43;;;14.30;99.90;;;;;;5051700;28;20750;-74
2023/05/02 07:55:20;;;;;;;22.20;19.05;;;14.30;99.90;;;;;;5039859;28;20602;-74
2023/05/02 07:57:46;;;;;;;26.20;18.77;;;14.30;99.90;;;;;;5042596;28;20173;-74
2023/05/02 08:00:13;;;;;;;20.13;17.00;;;14.30;99.90;;;;;;5034966;28;20803;-73
2023/05/02 08:02:41;;;;;;;18.60;15.55;;;14.40;99.90;;;;;;5039727;28;20194;-73
2023/05/02 08:05:08;;;;;;;15.40;13.18;;;14.40;99.90;;;;;;5040851;28;20181;-74
2023/05/02 08:07:34;;;;;;;17.43;13.37;;;14.40;99.90;;;;;;5036756;28;20188;-73
2023/05/02 08:10:00;;;;;;;18.50;12.40;;;14.40;99.90;;;;;;5043406;28;20568;-74
2023/05/02 08:12:26;;;;;;;15.40;11.85;;;14.40;99.90;;;;;;5037929;28;20765;-74
2023/05/02 08:14:53;;;;;;;14.07;10.27;;;14.50;99.90;;;;;;5043483;28;20208;-74
2023/05/02 08:17:20;;;;;;;16.90;13.03;;;14.50;99.90;;;;;;5047941;28;20934;-74
2023/05/02 08:19:46;;;;;;;15.23;11.50;;;14.70;99.90;;;;;;5039864;28;20607;-74
2023/05/02 08:22:12;;;;;;;15.73;11.10;;;14.80;99.90;;;;;;5039170;28;20628;-74
2023/05/02 08:24:37;;;;;;;14.93;10.50;;;14.90;99.90;;;;;;5031444;28;20663;-74
2023/05/02 08:27:03;;;;;;;14.97;9.17;;;15.10;99.90;;;;;;5030664;28;20181;-74
2023/05/02 08:29:30;;;;;;;10.10;7.90;;;15.20;99.90;;;;;;5014443;28;20249;-74
2023/05/02 08:31:55;;;;;;;6.27;5.43;;;15.30;99.90;;;;;;5031862;28;20699;-74
2023/05/02 08:34:21;;;;;;;6.73;3.97;;;15.40;99.90;;;;;;5030204;28;20664;-73
2023/05/02 08:36:48;;;;;;;8.00;4.50;;;15.50;99.90;;;;;;5031640;28;20189;-74
2023/05/02 08:39:14;;;;;;;7.33;4.90;;;15.60;99.90;;;;;;5030178;28;20947;-74
2023/05/02 08:41:39;;;;;;;9.17;4.60;;;15.70;99.90;;;;;;5031034;28;20293;-74
2023/05/02 08:44:09;;;;;;;4.70;3.53;;;15.70;99.90;;;;;;5031825;28;20173;-74
2023/05/02 08:46:36;;;;;;;5.37;3.80;;;15.80;99.90;;;;;;5030912;28;20583;-72
2023/05/02 08:49:02;;;;;;;5.33;3.43;;;15.80;99.90;;;;;;5030457;28;20668;-72
2023/05/02 08:51:31;;;;;;;7.53;3.00;;;15.80;99.90;;;;;;5029696;28;21223;-72
2023/05/02 08:53:57;;;;;;;4.53;2.37;;;15.70;99.90;;;;;;5030221;28;20997;-73
2023/05/02 08:56:24;;;;;;;5.63;2.00;;;15.70;99.90;;;;;;5029235;28;21023;-73
2023/05/02 08:58:49;;;;;;;5.17;2.13;;;15.70;99.90;;;;;;5030939;28;20576;-73
2023/05/02 09:01:18;;;;;;;4.77;1.90;;;15.70;99.90;;;;;;5029661;28;20632;-73
2023/05/02 09:03:45;;;;;;;3.87;1.33;;;15.70;99.90;;;;;;5029609;28;20715;-73
2023/05/02 09:06:19;;;;;;;3.77;1.70;;;15.70;99.90;;;;;;5030907;28;20936;-73
2023/05/02 09:08:51;;;;;;;6.37;1.97;;;15.80;99.90;;;;;;5030738;28;20561;-73
2023/05/02 09:11:17;;;;;;;5.90;4.03;;;15.90;99.90;;;;;;5029939;28;20642;-73
2023/05/02 09:13:45;;;;;;;6.00;4.70;;;16.00;99.90;;;;;;5030575;28;20665;-73
2023/05/02 09:16:21;;;;;;;9.80;5.53;;;16.00;99.90;;;;;;5031071;28;20588;-73
2023/05/02 09:18:56;;;;;;;8.07;4.67;;;16.00;99.90;;;;;;5030850;28;20944;-73
2023/05/02 09:21:35;;;;;;;8.33;5.70;;;15.90;99.90;;;;;;5022681;28;20639;-73
2023/05/02 09:24:13;;;;;;;6.40;5.10;;;15.80;99.90;;;;;;5011286;28;20584;-73
2023/05/02 09:26:39;;;;;;;8.30;5.10;;;15.70;99.90;;;;;;5009496;28;20569;-73
2023/05/02 09:29:05;;;;;;;5.77;4.83;;;15.50;99.90;;;;;;5011390;28;20581;-73
2023/05/02 09:31:35;;;;;;;9.20;5.70;;;15.50;99.90;;;;;;5009143;28;20664;-73
2023/05/02 09:34:13;;;;;;;9.10;5.30;;;15.40;99.90;;;;;;5010494;28;20624;-73
2023/05/02 09:36:44;;;;;;;8.60;5.60;;;15.40;99.90;;;;;;5009486;28;20565;-73
2023/05/02 09:39:19;;;;;;;11.73;6.50;;;15.40;99.90;;;;;;5009975;28;20627;-72
2023/05/02 09:41:46;;;;;;;7.53;6.83;;;15.40;99.90;;;;;;5010558;28;21254;-72
2023/05/02 09:44:14;;;;;;;7.73;5.50;;;15.60;99.90;;;;;;5011376;28;20981;-73
2023/05/02 09:46:41;;;;;;;8.03;6.67;;;15.80;99.90;;;;;;5009739;28;20573;-73
2023/05/02 09:49:09;;;;;;;9.77;6.90;;;16.00;99.90;;;;;;4993213;28;21011;-73
2023/05/02 09:51:35;;;;;;;7.97;7.10;;;16.20;99.90;;;;;;5017730;28;20608;-73
2023/05/02 09:54:02;;;;;;;11.03;6.33;;;16.40;99.90;;;;;;5029245;28;20964;-73
2023/05/02 09:56:27;;;;;;;11.03;6.50;;;16.60;99.90;;;;;;5029516;28;20642;-72
2023/05/02 09:59:16;;;;;;;11.33;6.63;;;16.70;99.90;;;;;;5028971;28;20587;-73
2023/05/02 10:01:42;;;;;;;10.30;6.83;;;16.70;99.90;;;;;;5030707;28;20205;-73
2023/05/02 10:04:15;;;;;;;6.23;5.63;;;16.80;99.90;;;;;;5030498;28;20585;-73
2023/05/02 10:06:45;;;;;;;5.03;4.47;;;16.80;99.90;;;;;;5029227;28;20576;-73
2023/05/02 10:09:13;;;;;;;12.87;4.00;;;16.70;99.90;;;;;;5030929;28;20560;-73
2023/05/02 10:11:42;;;;;;;5.43;3.60;;;16.70;99.90;;;;;;5029927;28;20739;-73
2023/05/02 10:14:10;;;;;;;8.67;5.73;;;16.70;99.90;;;;;;5032435;28;20655;-73
2023/05/02 10:16:41;;;;;;;7.23;4.33;;;16.60;99.90;;;;;;5032441;28;20587;-73
2023/05/02 10:19:11;;;;;;;6.60;4.97;;;16.70;99.90;;;;;;5034393;28;20568;-73
2023/05/02 10:21:39;;;;;;;6.33;4.43;;;16.80;99.90;;;;;;5030316;28;20632;-73
2023/05/02 10:24:05;;;;;;;6.33;5.10;;;16.90;99.90;;;;;;5033137;28;20589;-74
2023/05/02 10:26:33;;;;;;;7.03;5.07;;;17.10;99.90;;;;;;5033468;28;20580;-73
2023/05/02 10:29:00;;;;;;;6.87;4.57;;;17.20;99.90;;;;;;5033025;28;20615;-73
2023/05/02 10:31:32;;;;;;;6.73;4.80;;;17.20;99.90;;;;;;5032971;28;20580;-73
2023/05/02 10:34:00;;;;;;;7.20;5.30;;;17.30;99.90;;;;;;5033601;28;20584;-73
2023/05/02 10:36:28;;;;;;;7.50;4.43;;;17.30;99.90;;;;;;5032641;28;20572;-73
2023/05/02 10:38:54;;;;;;;7.07;3.30;;;17.30;99.90;;;;;;5033695;28;21211;-73
2023/05/02 10:41:24;;;;;;;3.90;3.27;;;17.20;99.90;;;;;;5032578;28;20670;-73
2023/05/02 10:43:50;;;;;;;6.07;3.37;;;17.10;99.90;;;;;;5032331;28;20662;-73
2023/05/02 10:46:36;;;;;;;4.57;2.57;;;17.00;99.90;;;;;;5015992;28;20580;-73
2023/05/02 10:49:08;;;;;;;6.40;2.50;;;16.90;99.90;;;;;;5033156;28;20580;-73
2023/05/02 10:51:37;;;;;;;7.20;2.63;;;16.90;99.90;;;;;;5033611;28;20576;-73
2023/05/02 10:54:33;;;;;;;6.27;4.80;;;16.90;99.90;;;;;;5032554;28;21143;-73
2023/05/02 10:57:05;;;;;;;5.20;3.60;;;16.90;99.90;;;;;;5016635;28;20755;-73
2023/05/02 10:59:33;;;;;;;4.17;3.77;;;16.90;99.90;;;;;;5029091;28;20588;-73
2023/05/02 11:02:00;;;;;;;5.17;3.43;;;16.80;99.90;;;;;;5013069;28;21025;-73
2023/05/02 11:05:00;;;;;;;5.20;4.37;;;16.80;99.90;;;;;;5013688;28;20580;-73
2023/05/02 11:07:27;;;;;;;4.77;4.17;;;16.80;99.90;;;;;;5008529;28;21225;-73
2023/05/02 11:10:05;;;;;;;6.90;4.37;;;16.90;99.90;;;;;;5028984;28;21164;-73
2023/05/02 11:12:49;;;;;;;7.13;5.07;;;17.10;99.90;;;;;;5012977;28;20605;-73
2023/05/02 11:15:41;;;;;;;6.20;4.57;;;17.20;99.90;;;;;;5012399;28;20569;-73
2023/05/02 11:18:11;;;;;;;5.63;3.93;;;17.50;99.90;;;;;;5011544;28;21095;-73
2023/05/02 11:20:41;;;;;;;7.13;3.97;;;17.60;99.90;;;;;;5013100;28;20617;-73
2023/05/02 11:23:24;;;;;;;5.23;3.77;;;17.80;99.90;;;;;;5025315;28;21284;-73
2023/05/02 11:25:59;;;;;;;7.50;4.00;;;17.90;99.90;;;;;;5029509;28;20576;-73
2023/05/02 11:28:44;;;;;;;4.33;3.60;;;18.00;99.90;;;;;;5032415;28;20667;-73
2023/05/02 11:31:52;;;;;;;6.30;4.40;;;18.10;99.90;;;;;;5031859;28;20925;-73
2023/05/02 11:34:18;;;;;;;5.33;2.87;;;18.10;99.90;;;;;;5031191;28;20580;-73
2023/05/02 11:36:44;;;;;;;7.10;3.50;;;18.10;99.90;;;;;;5031547;28;20592;-73
2023/05/02 11:39:20;;;;;;;6.53;3.47;;;18.10;99.90;;;;;;5031523;28;20631;-74
2023/05/02 11:41:49;;;;;;;5.70;3.83;;;18.10;99.90;;;;;;5032339;28;20559;-73
2023/05/02 11:44:15;;;;;;;7.13;4.00;;;18.10;99.90;;;;;;5032589;28;20623;-72
2023/05/02 11:46:41;;;;;;;6.20;3.97;;;18.20;99.90;;;;;;5035675;28;21155;-73
2023/05/02 11:49:07;;;;;;;7.23;4.33;;;18.20;99.90;;;;;;5052547;28;20169;-73
2023/05/02 11:51:34;;;;;;;5.10;3.70;;;18.20;99.90;;;;;;5050549;28;20183;-72
2023/05/02 11:53:59;;;;;;;8.50;4.93;;;18.20;99.90;;;;;;5052563;28;20633;-73
2023/05/02 11:56:26;;;;;;;4.50;3.90;;;18.30;99.90;;;;;;5033329;28;20600;-73
2023/05/02 11:59:02;;;;;;;5.83;4.70;;;18.40;99.90;;;;;;5031031;28;20173;-73
2023/05/02 12:01:29;;;;;;;4.10;3.20;;;18.40;99.90;;;;;;5032223;28;20623;-73
2023/05/02 12:04:06;;;;;;;5.90;2.87;;;18.60;99.90;;;;;;5030522;28;20615;-73
2023/05/02 12:06:32;;;;;;;4.17;2.97;;;18.60;99.90;;;;;;5030931;28;20677;-73
2023/05/02 12:09:08;;;;;;;4.90;2.50;;;18.70;99.90;;;;;;5031893;28;20568;-73
2023/05/02 12:11:36;;;;;;;4.70;2.93;;;18.90;99.90;;;;;;5030854;28;20579;-72
2023/05/02 12:14:04;;;;;;;3.30;2.37;;;19.00;99.90;;;;;;5030637;28;20675;-73
2023/05/02 12:16:30;;;;;;;6.20;2.27;;;19.20;99.90;;;;;;5031084;28;20583;-73
2023/05/02 12:18:58;;;;;;;4.30;2.90;;;19.30;99.90;;;;;;5030564;28;20951;-73
2023/05/02 12:21:25;;;;;;;6.27;2.60;;;19.30;99.90;;;;;;5031793;28;20963;-73
2023/05/02 12:23:52;;;;;;;6.53;3.13;;;19.40;99.90;;;;;;5032121;28;21144;-73
2023/05/02 12:26:23;;;;;;;6.07;3.10;;;19.30;99.90;;;;;;5013377;28;20580;-73
2023/05/02 12:28:51;;;;;;;3.40;2.80;;;19.20;99.90;;;;;;5030956;28;20580;-73
2023/05/02 12:31:17;;;;;;;4.33;2.20;;;19.20;99.90;;;;;;5030099;28;20593;-73
2023/05/02 12:33:43;;;;;;;8.00;3.70;;;19.10;99.90;;;;;;5030598;28;20600;-73
2023/05/02 12:36:09;;;;;;;4.00;2.80;;;19.00;99.90;;;;;;5030876;28;20730;-73
2023/05/02 12:38:35;;;;;;;3.87;2.50;;;18.90;99.90;;;;;;5013674;28;20623;-73
2023/05/02 12:41:04;;;;;;;5.03;3.70;;;18.90;99.90;;;;;;5029422;28;21473;-73
2023/05/02 12:43:47;;;;;;;5.00;3.03;;;19.00;99.90;;;;;;5029429;28;20608;-74